createdAt,value
2018-06-30T00:00:49.339Z,19.54
2018-06-30T00:03:18.710Z,19.54
2018-06-30T00:05:48.405Z,19.51
2018-06-30T00:08:17.816Z,19.54
2018-06-30T00:10:47.267Z,19.54
2018-06-30T00:13:16.653Z,19.52
2018-06-30T00:15:45.671Z,19.53
2018-06-30T00:18:14.751Z,19.54
2018-06-30T00:20:44.295Z,19.59
2018-06-30T00:23:13.296Z,19.60
2018-06-30T00:25:42.310Z,19.59
2018-06-30T00:28:11.620Z,19.70
2018-06-30T00:30:40.667Z,19.67
2018-06-30T00:33:09.699Z,19.69
2018-06-30T00:35:38.837Z,19.71
2018-06-30T00:38:07.880Z,19.75
2018-06-30T00:40:36.919Z,19.80
2018-06-30T00:43:06.449Z,19.81
2018-06-30T00:45:35.706Z,19.82
2018-06-30T00:48:04.569Z,19.82
2018-06-30T00:50:33.637Z,19.92
2018-06-30T00:53:03.270Z,19.96
2018-06-30T00:55:32.586Z,19.94
2018-06-30T00:58:01.976Z,19.95
2018-06-30T01:00:30.958Z,19.96
2018-06-30T01:03:00.337Z,19.89
2018-06-30T01:05:29.386Z,19.90
2018-06-30T01:07:58.480Z,19.90
2018-06-30T01:10:27.513Z,19.84
2018-06-30T01:12:56.608Z,19.85
2018-06-30T01:16:54.910Z,19.84
2018-06-30T01:19:24.410Z,19.80
2018-06-30T01:21:53.427Z,19.82
2018-06-30T01:24:22.478Z,19.85
2018-06-30T01:26:51.631Z,19.83
2018-06-30T01:29:21.710Z,19.82
2018-06-30T01:31:50.757Z,19.82
2018-06-30T01:34:19.957Z,19.84
2018-06-30T01:36:48.875Z,19.82
2018-06-30T01:39:17.819Z,19.84
2018-06-30T01:41:46.995Z,19.83
2018-06-30T01:44:15.948Z,19.80
2018-06-30T01:46:44.798Z,19.78
2018-06-30T01:49:13.975Z,19.75
2018-06-30T01:51:43.095Z,19.77
2018-06-30T01:54:12.293Z,19.78
2018-06-30T01:56:41.629Z,19.78
2018-06-30T01:59:10.671Z,19.79
2018-06-30T02:01:40.759Z,19.80
2018-06-30T02:04:09.931Z,19.77
2018-06-30T02:06:39.193Z,19.75
2018-06-30T02:09:10.075Z,19.73
2018-06-30T02:11:39.911Z,19.71
2018-06-30T02:14:09.884Z,19.74
2018-06-30T02:16:39.259Z,19.68
2018-06-30T02:19:08.538Z,19.61
2018-06-30T02:21:37.825Z,19.58
2018-06-30T02:24:06.951Z,19.59
2018-06-30T02:26:37.026Z,19.56
2018-06-30T02:29:06.594Z,19.65
2018-06-30T02:31:35.936Z,19.66
2018-06-30T02:34:05.207Z,19.63
2018-06-30T02:36:34.678Z,19.65
2018-06-30T02:39:04.017Z,19.63
2018-06-30T02:41:33.144Z,19.63
2018-06-30T02:44:02.782Z,19.57
2018-06-30T02:46:31.774Z,19.54
2018-06-30T02:49:00.763Z,19.36
2018-06-30T02:51:29.804Z,19.13
2018-06-30T02:53:58.950Z,18.90
2018-06-30T02:56:28.144Z,18.75
2018-06-30T02:58:57.401Z,18.63
2018-06-30T03:01:26.614Z,18.57
2018-06-30T03:03:55.751Z,18.49
2018-06-30T03:06:25.423Z,18.47
2018-06-30T03:08:54.535Z,18.50
2018-06-30T03:11:23.551Z,18.40
2018-06-30T03:13:52.861Z,18.44
2018-06-30T03:16:21.937Z,18.45
2018-06-30T03:18:51.144Z,18.46
2018-06-30T03:21:20.390Z,18.47
2018-06-30T03:23:49.435Z,18.47
2018-06-30T03:26:18.748Z,18.49
2018-06-30T03:28:48.095Z,18.57
2018-06-30T03:31:17.129Z,18.54
2018-06-30T03:33:46.166Z,18.57
2018-06-30T03:36:15.412Z,18.67
2018-06-30T03:38:44.548Z,18.74
2018-06-30T03:41:13.620Z,18.81
2018-06-30T03:43:42.795Z,18.83
2018-06-30T03:46:11.865Z,18.86
2018-06-30T03:48:40.953Z,18.86
2018-06-30T03:51:10.114Z,18.77
2018-06-30T03:53:39.081Z,18.65
2018-06-30T03:56:08.300Z,18.57
2018-06-30T03:58:37.783Z,18.49
2018-06-30T04:01:06.963Z,18.50
2018-06-30T04:03:36.045Z,18.52
2018-06-30T04:06:05.143Z,18.50
2018-06-30T04:08:34.379Z,18.47
2018-06-30T04:11:03.406Z,18.41
2018-06-30T04:13:33.001Z,18.42
2018-06-30T04:16:02.255Z,18.40
2018-06-30T04:18:31.199Z,18.44
2018-06-30T04:21:00.361Z,18.44
2018-06-30T04:23:29.360Z,18.39
2018-06-30T04:25:58.370Z,18.39
2018-06-30T04:28:27.485Z,18.29
2018-06-30T04:30:56.510Z,18.27
2018-06-30T04:33:25.654Z,18.30
2018-06-30T04:35:54.790Z,18.34
2018-06-30T04:38:23.725Z,18.41
2018-06-30T04:40:52.858Z,18.48
2018-06-30T04:43:22.002Z,18.60
2018-06-30T04:45:51.067Z,18.65
2018-06-30T04:48:20.160Z,18.78
2018-06-30T04:50:49.231Z,18.96
2018-06-30T04:53:18.177Z,19.12
2018-06-30T04:55:47.232Z,19.26
2018-06-30T04:58:16.317Z,19.52
2018-06-30T05:00:45.466Z,19.74
2018-06-30T05:03:14.460Z,20.10
2018-06-30T05:05:44.107Z,20.42
2018-06-30T05:08:12.975Z,20.76
2018-06-30T05:10:42.141Z,21.21
2018-06-30T05:13:11.282Z,21.79
2018-06-30T05:15:40.406Z,22.44
2018-06-30T05:18:09.636Z,23.03
2018-06-30T05:20:38.715Z,23.57
2018-06-30T05:23:07.868Z,24.19
2018-06-30T05:25:37.037Z,24.67
2018-06-30T05:28:06.090Z,24.75
2018-06-30T05:30:35.162Z,24.39
2018-06-30T05:33:04.504Z,23.79
2018-06-30T05:35:33.537Z,23.41
2018-06-30T05:38:02.687Z,23.40
2018-06-30T05:40:32.134Z,23.44
2018-06-30T05:43:01.254Z,23.70
2018-06-30T05:45:30.311Z,23.90
2018-06-30T05:47:59.553Z,24.21
2018-06-30T05:50:28.707Z,24.32
2018-06-30T05:52:57.760Z,24.40
2018-06-30T05:55:27.044Z,24.29
2018-06-30T05:57:56.131Z,24.26
2018-06-30T06:00:25.478Z,24.05
2018-06-30T06:02:54.837Z,24.10
2018-06-30T06:05:24.095Z,24.34
2018-06-30T06:07:53.391Z,24.23
2018-06-30T06:10:22.981Z,24.36
2018-06-30T06:12:52.079Z,24.13
2018-06-30T06:15:21.176Z,24.10
2018-06-30T06:17:50.272Z,24.06
2018-06-30T06:20:19.513Z,23.90
2018-06-30T06:22:48.634Z,24.02
2018-06-30T06:25:17.879Z,24.18
2018-06-30T06:27:47.139Z,24.22
2018-06-30T06:30:16.384Z,24.40
2018-06-30T06:32:46.107Z,24.48
2018-06-30T06:35:15.169Z,24.52
2018-06-30T06:37:44.239Z,24.60
2018-06-30T06:40:13.387Z,24.51
2018-06-30T06:42:43.564Z,24.72
2018-06-30T06:45:13.031Z,24.85
2018-06-30T06:47:42.273Z,24.90
2018-06-30T06:50:11.428Z,25.04
2018-06-30T06:52:40.862Z,25.02
2018-06-30T06:55:10.203Z,25.26
2018-06-30T06:57:41.571Z,25.17
2018-06-30T07:00:10.808Z,24.85
2018-06-30T07:02:40.035Z,24.74
2018-06-30T07:05:09.300Z,24.49
2018-06-30T07:07:38.537Z,24.27
2018-06-30T07:10:07.757Z,24.34
2018-06-30T07:12:37.191Z,24.21
2018-06-30T07:15:06.559Z,24.18
2018-06-30T07:17:35.892Z,24.17
2018-06-30T07:20:05.527Z,24.17
2018-06-30T07:22:34.838Z,24.37
2018-06-30T07:25:04.228Z,24.58
2018-06-30T07:27:33.675Z,24.58
2018-06-30T07:30:04.099Z,24.74
2018-06-30T07:32:33.502Z,24.91
2018-06-30T07:35:05.361Z,24.97
2018-06-30T07:37:34.735Z,25.22
2018-06-30T07:40:04.124Z,25.39
2018-06-30T07:42:33.501Z,25.41
2018-06-30T07:45:02.843Z,25.15
2018-06-30T07:47:32.146Z,24.89
2018-06-30T07:50:01.466Z,24.85
2018-06-30T07:52:30.873Z,25.04
2018-06-30T07:55:00.171Z,25.15
2018-06-30T07:57:29.533Z,25.29
2018-06-30T07:59:58.781Z,25.37
2018-06-30T08:02:28.256Z,25.13
2018-06-30T08:04:57.622Z,24.97
2018-06-30T08:07:26.967Z,24.72
2018-06-30T08:09:56.391Z,24.53
2018-06-30T08:12:25.680Z,24.24
2018-06-30T08:15:00.105Z,24.27
2018-06-30T08:17:39.112Z,24.48
2018-06-30T08:21:31.773Z,24.54
2018-06-30T08:24:01.304Z,24.92
2018-06-30T08:26:33.891Z,25.26
2018-06-30T08:29:03.452Z,25.64
2018-06-30T08:31:34.093Z,25.91
2018-06-30T08:34:03.462Z,26.00
2018-06-30T08:36:32.785Z,26.28
2018-06-30T08:39:02.136Z,26.45
2018-06-30T08:41:31.420Z,26.63
2018-06-30T08:44:00.823Z,26.84
2018-06-30T08:46:31.249Z,27.00
2018-06-30T08:49:00.510Z,26.63
2018-06-30T08:51:29.980Z,26.53
2018-06-30T08:53:59.572Z,26.07
2018-06-30T08:56:29.138Z,26.11
2018-06-30T08:58:58.593Z,26.33
2018-06-30T09:01:28.161Z,26.80
2018-06-30T09:03:57.598Z,27.03
2018-06-30T09:06:27.168Z,27.18
2018-06-30T09:08:57.601Z,27.18
2018-06-30T09:11:28.911Z,26.91
2018-06-30T09:13:58.214Z,26.76
2018-06-30T09:16:27.524Z,26.73
2018-06-30T09:18:56.742Z,26.40
2018-06-30T09:21:26.199Z,26.33
2018-06-30T09:23:55.594Z,25.69
2018-06-30T09:26:24.845Z,25.34
2018-06-30T09:28:54.202Z,24.86
2018-06-30T09:31:24.477Z,24.85
2018-06-30T09:33:53.799Z,24.68
2018-06-30T09:36:22.979Z,24.41
2018-06-30T09:38:52.291Z,24.18
2018-06-30T09:41:21.743Z,23.82
2018-06-30T09:43:50.992Z,23.61
2018-06-30T09:46:20.251Z,23.38
2018-06-30T09:48:49.621Z,23.13
2018-06-30T09:51:18.902Z,23.09
2018-06-30T09:53:49.235Z,23.00
2018-06-30T09:56:18.554Z,23.03
2018-06-30T09:58:47.843Z,23.20
2018-06-30T10:01:17.146Z,23.57
2018-06-30T10:03:46.634Z,23.87
2018-06-30T10:06:15.903Z,24.22
2018-06-30T10:08:45.100Z,24.56
2018-06-30T10:11:14.429Z,24.94
2018-06-30T10:13:43.657Z,25.07
2018-06-30T10:16:13.310Z,25.42
2018-06-30T10:18:58.283Z,25.73
2018-06-30T10:21:27.782Z,25.85
2018-06-30T10:23:57.131Z,25.79
2018-06-30T10:26:26.508Z,25.91
2018-06-30T10:28:56.145Z,26.36
2018-06-30T10:31:25.443Z,26.73
2018-06-30T10:33:54.758Z,26.99
2018-06-30T10:36:24.128Z,27.06
2018-06-30T10:38:53.562Z,26.80
2018-06-30T10:41:22.802Z,26.71
2018-06-30T10:43:52.325Z,26.93
2018-06-30T10:46:23.647Z,26.87
2018-06-30T10:48:53.177Z,26.96
2018-06-30T10:51:23.532Z,26.91
2018-06-30T10:53:55.285Z,27.00
2018-06-30T10:56:25.657Z,26.93
2018-06-30T10:58:54.978Z,26.84
2018-06-30T11:01:24.374Z,26.81
2018-06-30T11:03:53.724Z,26.73
2018-06-30T11:06:23.215Z,26.72
2018-06-30T11:08:52.476Z,26.65
2018-06-30T11:11:21.806Z,26.45
2018-06-30T11:13:51.162Z,26.42
2018-06-30T11:16:21.392Z,26.31
2018-06-30T11:18:50.691Z,26.20
2018-06-30T11:21:20.185Z,26.46
2018-06-30T11:23:49.548Z,26.45
2018-06-30T11:26:18.751Z,26.35
2018-06-30T11:28:48.119Z,26.31
2018-06-30T11:31:17.371Z,26.31
2018-06-30T11:33:46.672Z,26.37
2018-06-30T11:36:16.625Z,26.59
2018-06-30T11:38:45.893Z,26.81
2018-06-30T11:41:15.165Z,26.74
2018-06-30T11:43:44.765Z,26.81
2018-06-30T11:46:14.026Z,27.02
2018-06-30T11:48:43.325Z,26.97
2018-06-30T11:51:12.874Z,26.92
2018-06-30T11:53:42.789Z,26.82
2018-06-30T11:56:12.250Z,26.85
2018-06-30T11:58:41.967Z,27.04
2018-06-30T12:01:11.306Z,27.03
2018-06-30T12:03:41.076Z,27.21
2018-06-30T12:06:10.931Z,27.22
2018-06-30T12:08:40.331Z,27.07
2018-06-30T12:11:09.657Z,27.03
2018-06-30T12:13:39.395Z,27.16
2018-06-30T12:16:09.752Z,27.57
2018-06-30T12:18:40.743Z,27.82
2018-06-30T12:21:10.197Z,28.22
2018-06-30T12:23:41.510Z,28.24
2018-06-30T12:26:10.520Z,28.11
2018-06-30T12:28:39.928Z,27.90
2018-06-30T12:31:09.545Z,27.95
2018-06-30T12:33:38.883Z,28.18
2018-06-30T12:36:08.128Z,28.07
2018-06-30T12:38:37.646Z,28.15
2018-06-30T12:41:07.258Z,28.38
2018-06-30T12:43:36.686Z,28.29
2018-06-30T12:46:06.603Z,28.30
2018-06-30T12:48:35.924Z,28.42
2018-06-30T12:51:05.188Z,28.46
2018-06-30T12:53:34.573Z,28.58
2018-06-30T12:56:04.584Z,28.69
2018-06-30T12:58:33.907Z,28.80
2018-06-30T13:01:03.600Z,28.94
2018-06-30T13:03:32.877Z,29.12
2018-06-30T13:06:02.204Z,29.10
2018-06-30T13:08:31.508Z,29.27
2018-06-30T13:11:00.861Z,29.35
2018-06-30T13:13:30.316Z,29.34
2018-06-30T13:15:59.647Z,29.09
2018-06-30T13:18:29.072Z,29.00
2018-06-30T13:20:58.424Z,29.05
2018-06-30T13:23:28.372Z,29.23
2018-06-30T13:25:57.823Z,28.98
2018-06-30T13:28:29.827Z,28.81
2018-06-30T13:30:59.293Z,28.74
2018-06-30T13:33:30.623Z,28.80
2018-06-30T13:36:00.320Z,28.77
2018-06-30T13:38:29.686Z,28.90
2018-06-30T13:40:59.460Z,29.05
2018-06-30T13:43:28.905Z,29.15
2018-06-30T13:45:58.335Z,29.06
2018-06-30T13:48:27.856Z,29.11
2018-06-30T13:50:57.175Z,29.10
2018-06-30T13:53:26.639Z,29.03
2018-06-30T13:55:55.844Z,28.81
2018-06-30T13:58:25.292Z,28.80
2018-06-30T14:00:54.980Z,28.81
2018-06-30T14:03:24.592Z,28.82
2018-06-30T14:05:54.048Z,28.70
2018-06-30T14:08:23.181Z,28.83
2018-06-30T14:10:52.504Z,28.59
2018-06-30T14:13:21.567Z,28.68
2018-06-30T14:15:51.583Z,28.72
2018-06-30T14:18:20.903Z,28.63
2018-06-30T14:20:50.016Z,28.68
2018-06-30T14:23:19.262Z,28.74
2018-06-30T14:25:48.545Z,28.81
2018-06-30T14:28:17.651Z,28.61
2018-06-30T14:30:46.955Z,28.74
2018-06-30T14:33:16.452Z,28.72
2018-06-30T14:35:46.372Z,28.60
2018-06-30T14:38:15.563Z,28.47
2018-06-30T14:40:45.076Z,28.65
2018-06-30T14:43:14.239Z,28.60
2018-06-30T14:45:43.309Z,28.57
2018-06-30T14:48:13.250Z,28.53
2018-06-30T14:50:42.163Z,28.68
2018-06-30T14:53:14.858Z,28.88
2018-06-30T14:55:43.895Z,28.89
2018-06-30T14:58:12.923Z,28.91
2018-06-30T15:00:42.318Z,28.78
2018-06-30T15:03:11.281Z,28.63
2018-06-30T15:05:40.281Z,28.49
2018-06-30T15:08:09.464Z,28.38
2018-06-30T15:10:38.707Z,28.37
2018-06-30T15:13:08.922Z,28.33
2018-06-30T15:15:38.150Z,28.29
2018-06-30T15:18:10.876Z,28.28
2018-06-30T15:20:40.167Z,28.36
2018-06-30T15:23:09.246Z,28.30
2018-06-30T15:25:38.396Z,28.36
2018-06-30T15:28:07.493Z,28.22
2018-06-30T15:30:36.552Z,28.15
2018-06-30T15:33:06.857Z,28.15
2018-06-30T15:35:36.048Z,28.09
2018-06-30T15:38:05.553Z,28.05
2018-06-30T15:40:34.542Z,28.10
2018-06-30T15:43:03.770Z,28.04
2018-06-30T15:45:33.343Z,27.92
2018-06-30T15:48:02.326Z,27.72
2018-06-30T15:50:31.230Z,27.89
2018-06-30T15:53:00.480Z,27.90
2018-06-30T15:55:29.651Z,27.80
2018-06-30T15:57:58.601Z,27.70
2018-06-30T16:00:27.773Z,27.64
2018-06-30T16:02:56.936Z,27.59
2018-06-30T16:05:25.950Z,27.58
2018-06-30T16:07:55.577Z,27.37
2018-06-30T16:10:25.512Z,27.51
2018-06-30T16:12:54.458Z,27.46
2018-06-30T16:15:23.623Z,27.34
2018-06-30T16:17:52.644Z,27.31
2018-06-30T16:20:21.939Z,27.25
2018-06-30T16:22:51.394Z,27.31
2018-06-30T16:25:20.454Z,27.30
2018-06-30T16:27:49.609Z,27.32
2018-06-30T16:30:18.949Z,27.42
2018-06-30T16:32:48.142Z,27.61
2018-06-30T16:35:17.160Z,27.64
2018-06-30T16:37:48.304Z,27.66
2018-06-30T16:40:17.362Z,27.62
2018-06-30T16:42:46.392Z,27.72
2018-06-30T16:45:15.594Z,27.83
2018-06-30T16:47:44.684Z,28.01
2018-06-30T16:50:14.845Z,28.08
2018-06-30T16:52:44.293Z,28.17
2018-06-30T16:55:15.546Z,28.28
2018-06-30T16:57:44.790Z,28.36
2018-06-30T17:00:13.679Z,28.40
2018-06-30T17:02:42.760Z,28.41
2018-06-30T17:05:13.328Z,28.30
2018-06-30T17:07:42.362Z,28.22
2018-06-30T17:10:11.340Z,28.12
2018-06-30T17:12:40.494Z,27.98
2018-06-30T17:15:11.371Z,27.80
2018-06-30T17:17:40.843Z,27.66
2018-06-30T17:20:09.801Z,27.49
2018-06-30T17:22:38.936Z,27.34
2018-06-30T17:25:08.484Z,27.23
2018-06-30T17:27:41.013Z,27.14
2018-06-30T17:30:11.208Z,27.06
2018-06-30T17:32:40.103Z,27.02
2018-06-30T17:35:09.024Z,26.99
2018-06-30T17:37:38.194Z,26.94
2018-06-30T17:40:07.279Z,26.91
2018-06-30T17:42:36.404Z,26.83
2018-06-30T17:45:06.668Z,26.75
2018-06-30T17:47:35.846Z,26.67
2018-06-30T17:50:06.133Z,26.61
2018-06-30T17:52:35.678Z,26.54
2018-06-30T17:55:05.199Z,26.50
2018-06-30T17:57:34.139Z,26.42
2018-06-30T18:00:03.400Z,26.35
2018-06-30T18:02:32.320Z,26.29
2018-06-30T18:05:01.504Z,26.28
2018-06-30T18:07:30.966Z,26.22
2018-06-30T18:10:00.000Z,26.17
2018-06-30T18:12:30.244Z,26.06
2018-06-30T18:14:59.776Z,25.87
2018-06-30T18:17:28.916Z,25.68
2018-06-30T18:19:57.888Z,25.55
2018-06-30T18:22:27.153Z,25.41
2018-06-30T18:24:56.083Z,25.30
2018-06-30T18:27:25.302Z,25.21
2018-06-30T18:29:54.367Z,25.12
2018-06-30T18:32:23.351Z,25.08
2018-06-30T18:34:52.226Z,24.97
2018-06-30T18:37:21.754Z,24.93
2018-06-30T18:39:50.703Z,24.79
2018-06-30T18:42:19.760Z,24.58
2018-06-30T18:44:49.021Z,24.49
2018-06-30T18:47:18.041Z,24.38
2018-06-30T18:49:47.011Z,24.27
2018-06-30T18:52:16.241Z,24.11
2018-06-30T18:54:45.321Z,23.97
2018-06-30T18:57:14.648Z,23.82
2018-06-30T18:59:43.971Z,23.74
2018-06-30T19:02:12.894Z,23.59
2018-06-30T19:04:42.125Z,23.60
2018-06-30T19:07:11.140Z,23.57
2018-06-30T19:09:40.188Z,23.44
2018-06-30T19:12:09.336Z,23.46
2018-06-30T19:14:38.908Z,23.42
2018-06-30T19:17:08.190Z,23.36
2018-06-30T19:19:37.379Z,23.37
2018-06-30T19:22:07.034Z,23.37
2018-06-30T19:24:35.904Z,23.37
2018-06-30T19:27:06.002Z,23.44
2018-06-30T19:29:35.040Z,23.43
2018-06-30T19:32:04.150Z,23.46
2018-06-30T19:34:33.331Z,23.48
2018-06-30T19:37:02.275Z,23.47
2018-06-30T19:39:31.383Z,23.48
2018-06-30T19:42:00.490Z,23.48
2018-06-30T19:44:29.880Z,23.46
2018-06-30T19:47:04.551Z,23.44
2018-06-30T19:49:34.604Z,23.41
2018-06-30T19:52:04.782Z,23.38
2018-06-30T19:54:34.044Z,23.34
2018-06-30T19:57:08.490Z,23.32
2018-06-30T19:59:37.857Z,23.36
2018-06-30T20:02:07.255Z,23.34
2018-06-30T20:04:36.789Z,23.32
2018-06-30T20:07:06.369Z,23.36
2018-06-30T20:09:39.032Z,23.33
2018-06-30T20:12:08.108Z,23.27
2018-06-30T20:14:37.960Z,23.31
2018-06-30T20:17:10.469Z,23.35
2018-06-30T20:19:39.591Z,23.36
2018-06-30T20:22:14.695Z,23.40
2018-06-30T20:24:50.589Z,23.38
2018-06-30T20:27:21.605Z,23.43
2018-06-30T20:29:54.147Z,23.47
2018-06-30T20:32:25.404Z,23.51
2018-06-30T20:34:54.503Z,23.55
2018-06-30T20:37:24.742Z,23.51
2018-06-30T20:39:58.835Z,23.49
2018-06-30T20:42:28.318Z,23.51
2018-06-30T20:44:57.562Z,23.56
2018-06-30T20:47:26.853Z,23.56
2018-06-30T20:49:59.982Z,23.60
2018-06-30T20:52:29.547Z,23.63
2018-06-30T20:54:58.598Z,23.65
2018-06-30T20:57:29.088Z,23.67
2018-06-30T20:59:58.627Z,23.65
2018-06-30T21:02:28.885Z,23.63
2018-06-30T21:04:58.084Z,23.54
2018-06-30T21:07:27.553Z,23.52
2018-06-30T21:09:56.849Z,23.52
2018-06-30T21:12:25.871Z,23.52
2018-06-30T21:14:55.660Z,23.45
2018-06-30T21:17:27.051Z,23.48
2018-06-30T21:20:00.356Z,23.44
2018-06-30T21:22:29.923Z,23.41
2018-06-30T21:25:03.972Z,23.39
2018-06-30T21:27:33.729Z,23.37
2018-06-30T21:30:04.000Z,23.40
2018-06-30T21:32:33.459Z,23.38
2018-06-30T21:35:05.088Z,23.33
2018-06-30T21:37:35.070Z,23.28
2018-06-30T21:46:10.367Z,23.13
2018-06-30T21:48:42.855Z,23.12
2018-06-30T21:51:21.156Z,23.13
2018-06-30T21:53:59.197Z,23.10
2018-06-30T21:56:30.976Z,23.07
2018-06-30T21:59:04.749Z,23.05
2018-06-30T22:01:34.729Z,23.02
2018-06-30T22:04:14.071Z,22.98
2018-06-30T22:06:54.837Z,22.92
2018-06-30T22:09:24.895Z,22.89
2018-06-30T22:12:02.821Z,22.87
2018-06-30T22:14:32.829Z,22.85
2018-06-30T22:17:01.996Z,22.93
2018-06-30T22:19:31.216Z,22.93
2018-06-30T22:22:00.373Z,22.88
2018-06-30T22:24:29.571Z,22.90
2018-06-30T22:26:59.751Z,22.87
2018-06-30T22:29:28.898Z,22.82
2018-06-30T22:31:57.907Z,22.83
2018-06-30T22:34:26.946Z,22.80
2018-06-30T22:36:57.453Z,22.76
2018-06-30T22:39:37.533Z,22.74
2018-06-30T22:42:08.028Z,22.78
2018-06-30T22:44:36.996Z,22.75
2018-06-30T22:47:06.264Z,22.78
2018-06-30T22:49:40.172Z,22.81
2018-06-30T22:52:21.876Z,22.88
2018-06-30T22:54:52.741Z,22.90
2018-06-30T22:57:24.145Z,22.90
2018-06-30T22:59:56.697Z,22.87
2018-06-30T23:02:26.457Z,22.84
2018-06-30T23:04:56.023Z,22.83
2018-06-30T23:07:25.607Z,22.76
2018-06-30T23:09:58.265Z,22.72
2018-06-30T23:12:27.900Z,22.67
2018-06-30T23:14:57.998Z,22.72
2018-06-30T23:17:33.505Z,22.64
2018-06-30T23:20:02.698Z,22.69
2018-06-30T23:22:49.704Z,22.64
2018-06-30T23:25:19.737Z,22.63
2018-06-30T23:27:48.735Z,22.57
2018-06-30T23:30:18.130Z,22.58
2018-06-30T23:32:47.313Z,22.54
2018-06-30T23:35:16.563Z,22.56
2018-06-30T23:37:45.851Z,22.50
2018-06-30T23:40:14.812Z,22.49
2018-06-30T23:42:43.960Z,22.45
2018-06-30T23:45:13.161Z,22.40
2018-06-30T23:47:42.297Z,22.37
2018-06-30T23:50:11.311Z,22.35
2018-06-30T23:52:44.484Z,22.25
2018-06-30T23:55:13.566Z,22.19
2018-06-30T23:57:42.654Z,22.14
